CheckWX is a tool to help pilots better visualize weather data.  It is not intended as a substitute for an official pre-flight weather briefing.

22:15:31 UTC

KHVR METAR
Havre City-County Airport
Havre, Montana, USA
Current

23 mins ago

KHVR 152153Z AUTO 00000KT 10SM CLR 28/04 A2996 RMK AO2 SLP131 T02780039
Observed
Jul-15 @ 21:53 UTC
Visibility
10 SM
Flight Rules
VFR
Cloud Levels
  • Clear skies
Temperature
28°C / 82°F
Dewpoint
C / 39°F
Humidity
21%
Altimeter
29.96" Hg
Pressure
1014.52 hPa
Previous

1 hour ago

KHVR 152053Z AUTO 32009G19KT 10SM CLR 28/04 A2996 RMK AO2 SLP131 T02830044 58014
Observed
Jul-15 @ 20:53 UTC
Wind
  • 320° at 9 KTS
  • Gusting to 19 KTS
Visibility
10 SM
Flight Rules
VFR
Cloud Levels
  • Clear skies
Temperature
28°C / 82°F
Dewpoint
C / 39°F
Humidity
21%
Altimeter
29.96" Hg
Pressure
1014.52 hPa
Previous

2 hours ago

KHVR 151953Z AUTO 29011KT 10SM SCT085 28/06 A2998 RMK AO2 SLP137 T02780056
Observed
Jul-15 @ 19:53 UTC
Wind
  • 290° at 11 KTS
Visibility
10 SM
Flight Rules
VFR
Cloud Levels
  • Scattered at 8,500' AGL
Temperature
28°C / 82°F
Dewpoint
C / 43°F
Humidity
25%
Altimeter
29.98" Hg
Pressure
1015.22 hPa